createdAt,value
2018-06-09T00:00:54.514Z,127.77
2018-06-09T00:03:23.075Z,127.30
2018-06-09T00:05:51.510Z,135.10
2018-06-09T00:08:20.062Z,135.03
2018-06-09T00:10:48.609Z,129.10
2018-06-09T00:13:17.071Z,126.90
2018-06-09T00:30:11.998Z,141.10
2018-06-09T00:32:40.226Z,145.83
2018-06-09T00:35:08.723Z,154.07
2018-06-09T00:37:37.223Z,161.10
2018-06-09T00:40:05.712Z,150.10
2018-06-09T00:42:34.235Z,145.70
2018-06-09T00:45:02.740Z,160.43
2018-06-09T00:47:31.226Z,166.20
2018-06-09T00:49:59.731Z,172.67
2018-06-09T00:52:28.226Z,153.43
2018-06-09T00:54:56.701Z,170.37
2018-06-09T00:57:25.185Z,167.57
2018-06-09T00:59:53.378Z,165.00
2018-06-09T01:02:22.357Z,173.73
2018-06-09T01:04:50.880Z,172.20
2018-06-09T01:07:19.379Z,176.60
2018-06-09T01:09:47.863Z,181.33
2018-06-09T01:12:16.365Z,181.17
2018-06-09T01:14:44.844Z,182.07
2018-06-09T01:17:13.341Z,179.00
2018-06-09T01:19:41.839Z,200.30
2018-06-09T01:22:09.983Z,209.40
2018-06-09T01:24:38.459Z,196.67
2018-06-09T01:27:06.948Z,196.67
2018-06-09T01:29:35.423Z,192.37
2018-06-09T01:32:03.927Z,205.70
2018-06-09T01:34:32.367Z,187.93
2018-06-09T01:37:00.904Z,200.40
2018-06-09T01:39:29.063Z,195.17
2018-06-09T01:41:57.541Z,204.80
2018-06-09T01:44:26.003Z,200.77
2018-06-09T01:46:54.508Z,213.07
2018-06-09T01:49:22.950Z,206.60
2018-06-09T01:51:52.451Z,212.47
2018-06-09T01:54:20.951Z,223.17
2018-06-09T01:56:49.468Z,203.60
2018-06-09T01:59:17.919Z,192.63
2018-06-09T02:01:46.411Z,195.70
2018-06-09T02:04:14.878Z,203.97
2018-06-09T02:06:43.364Z,201.57
2018-06-09T02:09:11.831Z,205.37
2018-06-09T02:11:40.314Z,202.27
2018-06-09T02:14:08.815Z,217.90
2018-06-09T02:16:37.267Z,204.20
2018-06-09T02:19:05.836Z,220.40
2018-06-09T02:21:34.376Z,211.17
2018-06-09T02:24:02.837Z,213.67
2018-06-09T02:26:31.348Z,214.90
2018-06-09T02:28:59.503Z,212.87
2018-06-09T02:31:27.971Z,229.87
2018-06-09T02:33:56.484Z,220.73
2018-06-09T02:36:24.668Z,223.03
2018-06-09T02:38:52.831Z,225.80
2018-06-09T02:41:21.303Z,232.47
2018-06-09T02:43:49.760Z,230.20
2018-06-09T02:46:18.253Z,221.97
2018-06-09T02:48:46.735Z,205.80
2018-06-09T02:51:15.207Z,224.73
2018-06-09T02:53:43.715Z,224.47
2018-06-09T02:56:12.188Z,215.30
2018-06-09T02:58:40.683Z,202.73
2018-06-09T03:01:09.243Z,208.73
2018-06-09T03:03:37.719Z,206.43
2018-06-09T03:06:06.239Z,202.10
2018-06-09T03:08:34.715Z,193.10
2018-06-09T03:11:03.177Z,186.07
2018-06-09T03:13:31.671Z,193.27
2018-06-09T03:16:00.136Z,200.37
2018-06-09T03:18:28.700Z,191.80
2018-06-09T03:20:57.188Z,180.17
2018-06-09T03:23:25.674Z,189.80
2018-06-09T03:25:54.195Z,193.53
2018-06-09T03:28:22.627Z,200.77
2018-06-09T03:30:51.123Z,197.23
2018-06-09T03:33:19.674Z,176.63
2018-06-09T03:35:48.193Z,164.27
2018-06-09T03:38:16.674Z,166.33
2018-06-09T03:40:45.163Z,174.80
2018-06-09T03:43:13.787Z,144.47
2018-06-09T03:45:42.243Z,147.40
2018-06-09T03:48:10.716Z,149.73
2018-06-09T03:50:39.175Z,128.83
2018-06-09T03:53:07.660Z,128.77
2018-06-09T03:55:36.162Z,129.20
2018-06-09T03:58:04.653Z,137.07
2018-06-09T04:00:33.102Z,134.07
2018-06-09T04:03:01.612Z,136.00
2018-06-09T04:05:30.107Z,122.17
2018-06-09T04:07:58.563Z,118.73
2018-06-09T04:10:27.036Z,125.50
2018-06-09T04:12:55.524Z,133.17
2018-06-09T04:15:24.008Z,132.03
2018-06-09T04:17:52.468Z,134.40
2018-06-09T04:20:20.984Z,135.87
2018-06-09T04:22:49.431Z,129.83
2018-06-09T04:25:18.842Z,139.33
2018-06-09T04:27:47.312Z,129.73
2018-06-09T04:30:15.822Z,139.80
2018-06-09T04:32:44.291Z,135.80
2018-06-09T04:35:12.819Z,139.87
2018-06-09T04:37:40.966Z,146.10
2018-06-09T04:40:09.548Z,141.67
2018-06-09T04:42:38.029Z,159.70
2018-06-09T04:45:06.508Z,157.67
2018-06-09T04:47:35.003Z,151.90
2018-06-09T04:50:03.491Z,169.33
2018-06-09T04:52:31.948Z,168.00
2018-06-09T04:55:00.423Z,173.57
2018-06-09T04:57:28.931Z,180.70
2018-06-09T04:59:57.424Z,178.63
2018-06-09T05:02:25.603Z,179.27
2018-06-09T05:04:53.771Z,162.33
2018-06-09T05:07:21.981Z,175.83
2018-06-09T05:09:50.524Z,185.50
2018-06-09T05:12:18.968Z,200.47
2018-06-09T05:14:47.471Z,206.10
2018-06-09T05:17:15.981Z,203.13
2018-06-09T05:19:44.436Z,219.40
2018-06-09T05:22:12.963Z,227.30
2018-06-09T05:24:41.442Z,234.63
2018-06-09T05:27:09.872Z,233.87
2018-06-09T05:29:38.383Z,232.80
2018-06-09T05:32:06.555Z,229.03
2018-06-09T05:34:35.077Z,242.47
2018-06-09T05:37:03.635Z,242.73
2018-06-09T05:39:31.798Z,230.50
2018-06-09T05:42:00.270Z,254.43
2018-06-09T05:44:28.762Z,245.57
2018-06-09T05:46:57.211Z,229.23
2018-06-09T05:49:25.814Z,239.23
2018-06-09T05:51:54.291Z,227.23
2018-06-09T05:54:22.805Z,214.07
2018-06-09T05:56:50.999Z,213.63
2018-06-09T05:59:19.562Z,204.73
2018-06-09T06:01:48.012Z,158.83
2018-06-09T06:04:16.552Z,157.57
2018-06-09T06:06:45.077Z,146.87
2018-06-09T06:09:13.580Z,140.00
2018-06-09T06:11:42.027Z,134.73
2018-06-09T06:14:10.513Z,124.40
2018-06-09T06:16:39.040Z,118.33
2018-06-09T06:19:07.482Z,104.30
2018-06-09T06:21:35.969Z,103.00
2018-06-09T06:24:04.503Z,95.77
2018-06-09T06:26:33.021Z,92.67
2018-06-09T06:29:01.493Z,91.53
2018-06-09T06:31:30.016Z,94.57
2018-06-09T06:33:58.170Z,88.83
2018-06-09T06:36:26.651Z,88.83
2018-06-09T06:38:55.251Z,89.80
2018-06-09T06:41:23.715Z,93.53
2018-06-09T06:43:52.227Z,86.43
2018-06-09T06:46:20.507Z,79.33
2018-06-09T06:48:48.654Z,78.93
2018-06-09T06:51:17.121Z,83.33
2018-06-09T06:53:45.600Z,76.30
2018-06-09T06:56:14.091Z,86.43
2018-06-09T06:58:42.576Z,76.03
2018-06-09T07:01:11.042Z,74.10
2018-06-09T07:03:39.751Z,74.00
2018-06-09T07:06:08.226Z,75.33
2018-06-09T07:08:37.083Z,69.17
2018-06-09T07:11:05.605Z,73.13
2018-06-09T07:13:34.220Z,70.03
2018-06-09T07:16:03.691Z,75.10
2018-06-09T07:18:32.197Z,93.23
2018-06-09T07:21:00.368Z,106.17
2018-06-09T07:23:28.579Z,103.57
2018-06-09T07:25:57.174Z,110.23
2018-06-09T07:28:25.731Z,114.33
2018-06-09T07:30:54.209Z,101.47
2018-06-09T07:33:22.817Z,119.03
2018-06-09T07:35:51.419Z,110.07
2018-06-09T07:38:19.943Z,106.90
2018-06-09T07:40:48.440Z,105.47
2018-06-09T07:43:16.604Z,114.47
2018-06-09T07:45:45.241Z,115.30
2018-06-09T07:48:15.264Z,119.33
2018-06-09T07:50:44.784Z,110.87
2018-06-09T07:53:13.432Z,105.70
2018-06-09T07:55:42.008Z,103.13
2018-06-09T07:58:10.419Z,97.90
2018-06-09T08:00:38.945Z,90.00
2018-06-09T08:03:07.322Z,95.17
2018-06-09T08:05:35.559Z,84.43
2018-06-09T08:08:04.196Z,86.90
2018-06-09T08:10:32.359Z,84.33
2018-06-09T08:13:00.902Z,87.50
2018-06-09T08:15:29.549Z,87.50
2018-06-09T08:17:58.108Z,88.03
2018-06-09T08:20:26.631Z,78.80
2018-06-09T08:22:55.182Z,75.73
2018-06-09T08:25:23.606Z,79.43
2018-06-09T08:27:52.165Z,76.53
2018-06-09T08:30:20.622Z,75.53
2018-06-09T08:32:48.938Z,68.40
2018-06-09T08:35:17.443Z,72.53
2018-06-09T08:37:45.907Z,70.63
2018-06-09T08:40:14.427Z,67.63
2018-06-09T08:42:42.879Z,73.17
2018-06-09T08:45:11.418Z,72.20
2018-06-09T08:47:39.598Z,70.80
2018-06-09T08:50:08.088Z,91.90
2018-06-09T08:52:36.548Z,71.37
2018-06-09T08:55:05.052Z,71.47
2018-06-09T08:57:33.736Z,68.80
2018-06-09T09:00:02.176Z,72.97
2018-06-09T09:02:30.747Z,70.90
2018-06-09T09:04:59.223Z,67.40
2018-06-09T09:07:28.782Z,69.97
2018-06-09T09:09:57.215Z,64.83
2018-06-09T09:12:25.874Z,62.07
2018-06-09T09:14:54.432Z,66.40
2018-06-09T09:17:24.517Z,54.93
2018-06-09T09:19:53.083Z,58.10
2018-06-09T09:22:21.671Z,53.50
2018-06-09T09:24:51.204Z,53.23
2018-06-09T09:27:19.775Z,54.70
2018-06-09T09:29:48.456Z,53.13
2018-06-09T09:32:16.989Z,47.37
2018-06-09T09:34:45.467Z,47.83
2018-06-09T09:37:14.196Z,47.17
2018-06-09T09:39:43.495Z,45.40
2018-06-09T09:42:12.029Z,52.17
2018-06-09T09:44:40.538Z,41.30
2018-06-09T09:47:09.109Z,50.60
2018-06-09T09:49:37.604Z,45.13
2018-06-09T09:52:06.459Z,42.73
2018-06-09T09:54:34.661Z,42.93
2018-06-09T09:57:03.433Z,48.40
2018-06-09T09:59:31.647Z,41.93
2018-06-09T10:02:00.223Z,39.87
2018-06-09T10:07:05.148Z,42.70
2018-06-09T10:09:33.313Z,41.17
2018-06-09T10:12:01.812Z,40.13
2018-06-09T10:14:30.315Z,40.47
2018-06-09T10:16:58.992Z,39.77
2018-06-09T10:19:27.540Z,41.10
2018-06-09T10:21:56.069Z,38.83
2018-06-09T10:24:24.583Z,40.47
2018-06-09T10:26:53.089Z,36.27
2018-06-09T10:29:21.483Z,33.30
2018-06-09T10:31:50.088Z,34.17
2018-06-09T10:34:18.727Z,34.93
2018-06-09T10:36:47.679Z,34.43
2018-06-09T10:39:16.269Z,30.43
2018-06-09T10:41:44.983Z,29.40
2018-06-09T10:44:14.265Z,31.93
2018-06-09T10:46:42.827Z,31.10
2018-06-09T10:49:11.455Z,29.77
2018-06-09T10:51:40.030Z,30.83
2018-06-09T10:54:08.728Z,29.87
2018-06-09T10:56:37.304Z,28.40
2018-06-09T10:59:06.271Z,27.00
2018-06-09T11:01:35.440Z,29.57
2018-06-09T11:04:04.455Z,26.17
2018-06-09T11:06:33.775Z,25.27
2018-06-09T11:09:02.548Z,24.70
2018-06-09T11:11:31.517Z,26.73
2018-06-09T11:14:00.077Z,23.77
2018-06-09T11:16:28.258Z,24.70
2018-06-09T11:18:56.436Z,22.53
2018-06-09T11:21:24.823Z,24.73
2018-06-09T11:23:53.699Z,28.13
2018-06-09T11:26:22.304Z,29.67
2018-06-09T11:28:51.316Z,28.63
2018-06-09T11:31:19.959Z,24.23
2018-06-09T11:33:48.659Z,24.33
2018-06-09T11:36:17.208Z,24.23
2018-06-09T11:38:46.059Z,27.10
2018-06-09T11:41:14.921Z,28.10
2018-06-09T11:43:43.948Z,26.50
2018-06-09T11:46:12.552Z,26.00
2018-06-09T11:48:41.615Z,24.73
2018-06-09T11:51:10.786Z,22.97
2018-06-09T11:53:39.574Z,23.43
2018-06-09T11:56:08.093Z,23.07
2018-06-09T11:58:36.791Z,22.37
2018-06-09T12:01:05.350Z,24.37
2018-06-09T12:03:34.360Z,23.03
2018-06-09T12:06:02.880Z,24.00
2018-06-09T12:08:31.381Z,21.87
2018-06-09T12:10:59.952Z,24.07
2018-06-09T12:13:28.871Z,20.50
2018-06-09T12:15:57.378Z,21.30
2018-06-09T12:18:26.778Z,19.10
2018-06-09T12:20:55.247Z,19.23
2018-06-09T12:23:23.500Z,22.23
2018-06-09T12:25:51.972Z,22.10
2018-06-09T12:28:20.583Z,23.93
2018-06-09T12:30:48.771Z,22.03
2018-06-09T12:33:17.251Z,23.80
2018-06-09T12:35:45.858Z,24.80
2018-06-09T12:38:14.447Z,24.00
2018-06-09T12:40:42.981Z,23.17
2018-06-09T12:43:11.519Z,18.87
2018-06-09T12:45:41.727Z,20.17
2018-06-09T12:48:10.362Z,20.63
2018-06-09T12:50:38.956Z,19.40
2018-06-09T12:53:07.516Z,21.80
2018-06-09T12:55:36.016Z,22.73
2018-06-09T12:58:04.588Z,22.00
2018-06-09T13:00:33.212Z,23.57
2018-06-09T13:03:01.727Z,23.90
2018-06-09T13:05:30.266Z,27.63
2018-06-09T13:07:58.703Z,21.27
2018-06-09T13:10:27.443Z,25.33
2018-06-09T13:12:55.611Z,23.83
2018-06-09T13:15:23.798Z,25.17
2018-06-09T13:17:52.252Z,23.70
2018-06-09T13:20:20.757Z,21.93
2018-06-09T13:22:49.257Z,24.20
2018-06-09T13:25:17.854Z,23.03
2018-06-09T13:27:46.387Z,24.13
2018-06-09T13:30:14.854Z,25.57
2018-06-09T13:32:43.397Z,23.27
2018-06-09T13:35:12.016Z,24.93
2018-06-09T13:37:40.989Z,24.80
2018-06-09T13:40:09.555Z,28.30
2018-06-09T13:42:38.140Z,28.97
2018-06-09T13:45:06.665Z,27.93
2018-06-09T13:47:35.152Z,30.63
2018-06-09T13:50:03.711Z,28.37
2018-06-09T13:52:32.231Z,31.57
2018-06-09T13:55:00.752Z,28.57
2018-06-09T13:57:29.302Z,30.10
2018-06-09T13:59:57.483Z,37.73
2018-06-09T14:02:25.631Z,31.60
2018-06-09T14:04:54.119Z,32.03
2018-06-09T14:07:22.609Z,31.90
2018-06-09T14:09:51.234Z,26.50
2018-06-09T14:12:19.755Z,29.73
2018-06-09T14:14:48.243Z,32.70
2018-06-09T14:17:16.843Z,27.97
2018-06-09T14:19:45.597Z,31.87
2018-06-09T14:22:14.108Z,33.23
2018-06-09T14:24:42.562Z,35.00
2018-06-09T14:27:11.072Z,35.10
2018-06-09T14:29:39.532Z,31.97
2018-06-09T14:32:08.067Z,33.10
2018-06-09T14:34:36.561Z,35.07
2018-06-09T14:37:05.151Z,34.23
2018-06-09T14:39:33.648Z,36.70
2018-06-09T14:42:02.148Z,36.77
2018-06-09T14:44:30.655Z,34.63
2018-06-09T14:46:59.338Z,39.33
2018-06-09T14:49:27.816Z,37.90
2018-06-09T14:51:56.280Z,35.13
2018-06-09T14:54:24.879Z,32.93
2018-06-09T14:56:53.327Z,32.53
2018-06-09T14:59:21.841Z,36.70
2018-06-09T15:01:50.578Z,33.33
2018-06-09T15:04:19.127Z,33.10
2018-06-09T15:06:47.600Z,39.40
2018-06-09T15:09:16.084Z,32.33
2018-06-09T15:11:44.613Z,32.07
2018-06-09T15:14:13.053Z,31.50
2018-06-09T15:16:41.548Z,35.90
2018-06-09T15:19:09.995Z,35.27
2018-06-09T15:21:38.533Z,32.47
2018-06-09T15:24:07.099Z,33.63
2018-06-09T15:26:35.298Z,35.90
2018-06-09T15:29:03.925Z,33.90
2018-06-09T15:31:32.580Z,32.13
2018-06-09T15:34:01.180Z,30.47
2018-06-09T15:36:29.712Z,32.30
2018-06-09T15:38:58.192Z,32.23
2018-06-09T15:41:26.609Z,28.80
2018-06-09T15:43:55.575Z,30.17
2018-06-09T15:46:24.056Z,29.30
2018-06-09T15:48:52.768Z,30.50
2018-06-09T15:51:21.344Z,28.27
2018-06-09T15:53:49.947Z,30.77
2018-06-09T15:56:19.492Z,28.77
2018-06-09T15:58:47.980Z,27.13
2018-06-09T16:01:16.488Z,27.83
2018-06-09T16:03:44.766Z,33.93
2018-06-09T16:06:13.295Z,28.30
2018-06-09T16:08:41.865Z,29.00
2018-06-09T16:11:10.489Z,29.07
2018-06-09T16:13:38.763Z,30.10
2018-06-09T18:01:13.507Z,24.67
2018-06-09T18:03:41.971Z,27.40
2018-06-09T18:06:10.471Z,22.90
2018-06-09T18:08:38.954Z,23.27
2018-06-09T18:11:07.557Z,23.43
2018-06-09T18:13:35.730Z,22.17
2018-06-09T18:16:04.435Z,23.40
2018-06-09T18:18:32.869Z,22.70
2018-06-09T18:21:01.360Z,22.20
2018-06-09T18:23:29.894Z,21.07
2018-06-09T18:25:58.389Z,22.20
2018-06-09T18:28:26.878Z,22.57
2018-06-09T18:30:55.403Z,23.13
2018-06-09T18:33:23.859Z,23.70
2018-06-09T18:35:52.344Z,24.77
2018-06-09T18:38:20.886Z,25.07
2018-06-09T18:40:49.381Z,24.30
2018-06-09T18:43:17.913Z,34.00
2018-06-09T18:45:46.451Z,26.67
2018-06-09T18:48:15.020Z,27.63
2018-06-09T18:50:43.478Z,26.10
2018-06-09T18:53:11.936Z,24.50
2018-06-09T18:55:40.514Z,26.03
2018-06-09T18:58:09.163Z,27.53
2018-06-09T19:00:37.751Z,25.97
2018-06-09T19:03:06.344Z,24.73
2018-06-09T19:05:34.871Z,24.83
2018-06-09T19:08:03.400Z,26.07
2018-06-09T19:10:32.084Z,25.43
2018-06-09T19:13:00.575Z,26.57
2018-06-09T19:15:29.115Z,26.80
2018-06-09T19:17:57.390Z,24.50
2018-06-09T19:20:25.955Z,26.80
2018-06-09T19:22:54.479Z,26.83
2018-06-09T19:25:22.960Z,27.27
2018-06-09T19:27:51.418Z,27.63
2018-06-09T19:30:19.944Z,24.40
2018-06-09T19:32:48.847Z,24.87
2018-06-09T19:35:17.356Z,25.43
2018-06-09T19:37:45.983Z,28.13
2018-06-09T19:40:14.426Z,26.73
2018-06-09T19:42:42.903Z,27.83
2018-06-09T19:45:11.417Z,27.80
2018-06-09T19:47:39.620Z,27.13
2018-06-09T19:50:08.115Z,29.07
2018-06-09T19:52:36.699Z,30.40
2018-06-09T19:55:05.510Z,29.27
2018-06-09T19:57:34.163Z,27.80
2018-06-09T20:00:02.685Z,26.53
2018-06-09T20:02:31.247Z,27.30
2018-06-09T20:04:59.748Z,27.87
2018-06-09T20:07:28.288Z,28.13
2018-06-09T20:09:56.824Z,28.93
2018-06-09T20:12:25.315Z,55.47
2018-06-09T20:14:53.810Z,28.00
2018-06-09T20:17:22.265Z,28.17
2018-06-09T20:19:50.806Z,26.83
2018-06-09T20:22:19.332Z,40.50
2018-06-09T20:24:47.871Z,27.43
2018-06-09T20:27:16.494Z,26.87
2018-06-09T20:29:45.049Z,36.27
2018-06-09T20:32:13.622Z,34.40
2018-06-09T20:34:42.236Z,28.67
2018-06-09T20:37:10.807Z,28.00
2018-06-09T20:39:39.478Z,27.77
2018-06-09T20:42:08.228Z,26.60
2018-06-09T20:44:36.999Z,26.00
2018-06-09T20:47:05.728Z,28.50
2018-06-09T20:49:34.327Z,31.00
2018-06-09T20:52:02.939Z,27.53
2018-06-09T20:54:31.476Z,29.50
2018-06-09T20:57:00.503Z,29.93
2018-06-09T20:59:29.043Z,31.73
2018-06-09T21:01:57.240Z,29.43
2018-06-09T21:04:25.855Z,30.20
2018-06-09T21:06:54.414Z,30.90
2018-06-09T21:09:22.971Z,30.77
2018-06-09T21:11:51.147Z,41.43
2018-06-09T21:14:19.315Z,29.97
2018-06-09T21:16:47.494Z,31.17
2018-06-09T21:19:15.642Z,28.70
2018-06-09T21:21:44.145Z,30.37
2018-06-09T21:24:12.306Z,28.47
2018-06-09T21:26:46.132Z,27.90
2018-06-09T21:29:19.792Z,28.10
2018-06-09T21:31:48.292Z,27.80
2018-06-09T21:34:32.283Z,31.03
2018-06-09T21:37:06.309Z,25.93
2018-06-09T21:39:40.110Z,28.77
2018-06-09T21:42:13.915Z,27.30
2018-06-09T21:44:52.604Z,27.27
2018-06-09T21:47:21.307Z,27.47
2018-06-09T21:49:49.743Z,28.90
2018-06-09T21:52:18.347Z,28.37
2018-06-09T21:54:46.821Z,33.87
2018-06-09T21:57:15.319Z,37.33
2018-06-09T21:59:43.764Z,46.23
2018-06-09T22:02:12.285Z,45.90
2018-06-09T22:04:40.480Z,48.07
2018-06-09T22:07:08.933Z,50.57
2018-06-09T22:09:37.415Z,48.73
2018-06-09T22:12:05.872Z,54.10
2018-06-09T22:14:34.435Z,53.73
2018-06-09T22:17:03.001Z,56.30
2018-06-09T22:19:31.590Z,60.30
2018-06-09T22:22:00.147Z,50.27
2018-06-09T22:24:28.568Z,49.43
2018-06-09T22:26:57.104Z,47.67
2018-06-09T22:29:25.563Z,45.17
2018-06-09T22:31:54.071Z,43.07
2018-06-09T22:34:22.254Z,43.77
2018-06-09T22:36:50.423Z,45.97
2018-06-09T22:39:18.843Z,47.03
2018-06-09T22:41:47.526Z,48.60
2018-06-09T22:44:15.939Z,46.00
2018-06-09T22:46:44.522Z,47.70
2018-06-09T22:49:12.987Z,47.27
2018-06-09T22:51:41.462Z,47.70
2018-06-09T22:54:09.987Z,47.10
2018-06-09T22:56:38.523Z,45.60
2018-06-09T22:59:07.347Z,42.97
2018-06-09T23:01:35.817Z,41.77
2018-06-09T23:04:04.455Z,42.03
2018-06-09T23:06:33.139Z,38.03
2018-06-09T23:09:02.251Z,43.50
2018-06-09T23:11:31.198Z,32.57
2018-06-09T23:13:59.696Z,33.73
2018-06-09T23:16:27.902Z,33.23
2018-06-09T23:18:56.656Z,31.50
2018-06-09T23:21:25.343Z,31.33
2018-06-09T23:23:53.565Z,33.27
2018-06-09T23:26:22.147Z,25.90
2018-06-09T23:28:50.689Z,23.97
2018-06-09T23:31:18.863Z,23.97
2018-06-09T23:33:47.002Z,24.13
2018-06-09T23:36:15.487Z,27.97
2018-06-09T23:38:43.968Z,31.20
2018-06-09T23:41:12.563Z,31.40
2018-06-09T23:43:41.032Z,61.67
2018-06-09T23:46:09.503Z,38.40
2018-06-09T23:48:37.989Z,37.03
2018-06-09T23:51:06.545Z,31.83
2018-06-09T23:53:35.058Z,33.63
2018-06-09T23:56:03.567Z,24.37
2018-06-09T23:58:32.035Z,26.03
